Time;durP1;ratioP1;P1;durP2;ratioP2;P2;SDS_P1;SDS_P2;PMS_P1;PMS_P2;Temp;Humidity;BMP_temperature;BMP_pressure;BME280_temperature;BME280_humidity;BME280_pressure;Samples;Min_cycle;Max_cycle;Signal;HPM_P1;HPM_P2
2021/11/11 00:02:13;;;;;;;52.83;33.53;;;;;;;;;;5136041;27;20065;-70
2021/11/11 00:04:39;;;;;;;49.75;33.05;;;;;;;;;;5135769;27;20056;-70
2021/11/11 00:07:05;;;;;;;54.97;35.40;;;;;;;;;;5135918;27;20019;-69
2021/11/11 00:09:31;;;;;;;56.00;34.33;;;;;;;;;;5135572;27;20043;-70
2021/11/11 00:11:59;;;;;;;55.05;35.22;;;;;;;;;;5135656;27;20476;-70
2021/11/11 00:14:25;;;;;;;53.08;33.30;;;231.30;2252.80;;;;;;5135541;27;20075;-69
2021/11/11 00:16:51;;;;;;;48.38;32.70;;;;;;;;;;5136050;27;20349;-70
2021/11/11 00:19:17;;;;;;;45.92;30.38;;;256.30;2252.80;;;;;;5135568;27;20027;-69
2021/11/11 00:21:43;;;;;;;48.58;32.05;;;256.20;2252.80;;;;;;5135470;27;20032;-70
2021/11/11 00:24:09;;;;;;;44.17;30.70;;;256.00;2252.80;;;;;;5135646;27;20023;-69
2021/11/11 00:26:35;;;;;;;42.97;31.45;;;231.30;2252.80;;;;;;5135670;27;20432;-69
2021/11/11 00:29:01;;;;;;;48.80;31.30;;;;;;;;;;5135247;27;20038;-70
2021/11/11 00:31:27;;;;;;;42.22;28.48;;;256.40;2252.80;;;;;;5135513;27;20441;-70
2021/11/11 00:33:53;;;;;;;44.50;30.77;;;256.40;2252.80;;;;;;5135230;27;20034;-70
2021/11/11 00:36:19;;;;;;;45.60;30.77;;;256.20;2252.80;;;;;;5135366;27;20015;-70
2021/11/11 00:38:46;;;;;;;40.75;26.95;;;256.50;2252.80;;;;;;5135163;27;20518;-70
2021/11/11 00:41:14;;;;;;;39.65;28.45;;;256.10;2252.80;;;;;;5135143;27;20079;-69
2021/11/11 00:43:40;;;;;;;44.75;29.85;;;256.10;2252.80;;;;;;5135249;27;20455;-69
2021/11/11 00:46:06;;;;;;;47.92;31.98;;;256.30;2252.80;;;;;;5135203;27;20026;-70
2021/11/11 00:48:32;;;;;;;46.28;31.45;;;256.50;2252.80;;;;;;5134970;27;20393;-70
2021/11/11 00:50:58;;;;;;;68.88;41.40;;;256.10;2252.80;;;;;;5134928;27;20019;-70
2021/11/11 00:53:25;;;;;;;50.17;32.80;;;256.30;2252.80;;;;;;5134877;27;20043;-69
2021/11/11 00:55:51;;;;;;;44.25;29.35;;;256.30;2252.80;;;;;;5135003;27;20027;-70
2021/11/11 00:58:17;;;;;;;43.42;27.48;;;256.00;2252.80;;;;;;5135016;27;20106;-70
2021/11/11 01:00:43;;;;;;;42.97;28.48;;;231.30;2252.80;;;;;;5134631;27;20149;-70
2021/11/11 01:03:11;;;;;;;39.45;27.13;;;231.20;2252.80;;;;;;5134798;27;20019;-70
2021/11/11 01:05:37;;;;;;;40.42;25.95;;;231.00;2252.80;;;;;;5134914;27;20057;-70
2021/11/11 01:08:04;;;;;;;35.42;25.52;;;231.00;2252.80;;;;;;5134873;27;20026;-70
2021/11/11 01:10:30;;;;;;;42.45;27.33;;;231.00;2252.80;;;;;;5134082;27;20492;-70
2021/11/11 01:12:56;;;;;;;42.92;26.95;;;231.00;2252.80;;;;;;5132916;27;20027;-70
2021/11/11 01:15:28;;;;;;;41.30;26.00;;;231.10;2252.80;;;;;;5125040;27;20409;-70
2021/11/11 01:17:54;;;;;;;35.33;24.20;;;231.20;2252.80;;;;;;5129010;27;20061;-70
2021/11/11 01:20:21;;;;;;;40.97;27.10;;;;;;;;;;5134292;27;20031;-70
2021/11/11 01:22:49;;;;;;;39.47;27.05;;;256.60;2252.80;;;;;;5134434;27;20098;-70
2021/11/11 01:25:18;;;;;;;36.95;25.35;;;256.60;2252.80;;;;;;5132959;27;20026;-69
2021/11/11 01:27:44;;;;;;;37.92;25.52;;;256.50;2252.80;;;;;;5127278;27;20366;-69
2021/11/11 01:30:11;;;;;;;36.45;24.02;;;;;;;;;;5133987;27;20023;-69
2021/11/11 01:32:38;;;;;;;35.22;25.65;;;256.20;2252.80;;;;;;5134267;27;20058;-69
2021/11/11 01:35:04;;;;;;;37.90;25.48;;;256.30;2252.80;;;;;;5134538;27;20069;-70
2021/11/11 01:37:30;;;;;;;35.92;24.20;;;;;;;;;;5133979;27;20485;-70
2021/11/11 01:39:57;;;;;;;35.00;24.10;;;;;;;;;;5133961;27;20027;-70
2021/11/11 01:42:23;;;;;;;37.03;25.58;;;256.20;2252.80;;;;;;5117956;27;20030;-70
2021/11/11 01:44:50;;;;;;;39.45;26.23;;;;;;;;;;5134078;27;20027;-70
2021/11/11 01:47:16;;;;;;;37.75;25.52;;;256.50;2252.80;;;;;;5134121;27;20043;-70
2021/11/11 01:49:41;;;;;;;38.63;25.38;;;256.50;2252.80;;;;;;5133918;27;20438;-70
2021/11/11 01:52:09;;;;;;;37.55;25.00;;;256.50;2252.80;;;;;;5133969;27;20023;-70
2021/11/11 01:54:35;;;;;;;35.70;24.67;;;256.50;2252.80;;;;;;5133913;27;20396;-70
2021/11/11 01:57:01;;;;;;;34.75;24.92;;;256.50;2252.80;;;;;;5134048;27;20465;-70
2021/11/11 01:59:27;;;;;;;36.60;23.92;;;256.60;2252.80;;;;;;5133625;27;20027;-70
2021/11/11 02:01:55;;;;;;;39.20;24.38;;;256.60;2252.80;;;;;;5134233;27;20034;-70
2021/11/11 02:04:21;;;;;;;43.25;28.05;;;;;;;;;;5133857;27;20022;-70
2021/11/11 02:06:48;;;;;;;44.30;27.45;;;;;;;;;;5134035;27;20023;-70
2021/11/11 02:09:15;;;;;;;39.80;27.20;;;;;;;;;;5132396;27;20042;-70
2021/11/11 02:11:41;;;;;;;40.45;26.33;;;;;;;;;;5133749;27;20016;-70
2021/11/11 02:14:07;;;;;;;45.28;26.45;;;;;;;;;;5133648;27;20019;-70
2021/11/11 02:16:37;;;;;;;38.90;25.33;;;;;;;;;;5133685;27;20015;-70
2021/11/11 02:19:05;;;;;;;35.67;24.70;;;;;;;;;;5133563;27;20469;-69
2021/11/11 02:21:31;;;;;;;34.53;23.75;;;;;;;;;;5133536;27;20019;-69
2021/11/11 02:23:57;;;;;;;39.20;26.35;;;;;;;;;;5133245;27;20346;-70
2021/11/11 02:26:24;;;;;;;39.38;26.45;;;;;;;;;;5133621;27;20027;-70
2021/11/11 02:28:50;;;;;;;32.22;22.48;;;;;;;;;;5133357;27;20039;-70
2021/11/11 02:31:17;;;;;;;34.58;23.88;;;;;;;;;;5133556;27;20015;-70
2021/11/11 02:33:51;;;;;;;35.30;25.58;;;;;;;;;;5133792;27;20423;-70
2021/11/11 02:36:17;;;;;;;39.15;26.75;;;231.30;2252.80;;;;;;5133531;27;20094;-70
2021/11/11 02:38:43;;;;;;;36.90;24.15;;;;;;;;;;5133208;28;20111;-70
2021/11/11 02:41:10;;;;;;;42.03;26.27;;;;;;;;;;5133431;28;20105;-69
2021/11/11 02:43:37;;;;;;;38.35;24.60;;;;;;;;;;5133416;28;20031;-70
2021/11/11 02:46:03;;;;;;;36.30;23.65;;;;;;;;;;5133367;28;20023;-69
2021/11/11 02:48:29;;;;;;;58.55;32.42;;;;;;;;;;5133377;28;20091;-70
2021/11/11 02:50:55;;;;;;;36.13;24.77;;;;;;;;;;5133193;28;20019;-69
2021/11/11 02:53:22;;;;;;;41.63;25.92;;;;;;;;;;5133365;28;20042;-69
2021/11/11 02:55:48;;;;;;;36.00;25.50;;;;;;;;;;5133243;28;20484;-70
2021/11/11 02:58:15;;;;;;;49.45;29.90;;;;;;;;;;5133476;28;20032;-70
2021/11/11 03:00:41;;;;;;;48.08;29.05;;;;;;;;;;5133355;28;20015;-69
2021/11/11 03:03:07;;;;;;;45.03;29.40;;;;;;;;;;5133162;28;20031;-70
2021/11/11 03:05:34;;;;;;;43.42;27.20;;;;;;;;;;5133421;27;20079;-70
2021/11/11 03:08:00;;;;;;;35.15;23.05;;;;;;;;;;5113862;28;20031;-70
2021/11/11 03:10:28;;;;;;;40.33;26.20;;;;;;;;;;5132230;28;20084;-70
2021/11/11 03:12:54;;;;;;;38.70;23.83;;;;;;;;;;5133220;28;20054;-69
2021/11/11 03:15:21;;;;;;;35.65;23.70;;;;;;;;;;5132990;28;20019;-70
2021/11/11 03:17:47;;;;;;;34.85;22.98;;;;;;;;;;5132931;28;20550;-70
2021/11/11 03:20:15;;;;;;;38.70;23.73;;;;;;;;;;5133010;28;20019;-70
2021/11/11 03:22:42;;;;;;;40.67;24.15;;;;;;;;;;5133098;28;20047;-70
2021/11/11 03:25:09;;;;;;;40.42;26.05;;;;;;;;;;5132336;28;20099;-69
2021/11/11 03:27:35;;;;;;;75.65;44.20;;;;;;;;;;5124628;28;20397;-70
2021/11/11 03:30:01;;;;;;;34.92;24.15;;;;;;;;;;5133080;28;20055;-69
2021/11/11 03:32:27;;;;;;;30.67;21.20;;;;;;;;;;5132856;28;20567;-70
2021/11/11 03:34:53;;;;;;;32.60;22.23;;;;;;;;;;5135877;27;20071;-69
2021/11/11 03:37:22;;;;;;;32.28;20.98;;;;;;;;;;5136709;27;20016;-70
2021/11/11 03:39:49;;;;;;;47.00;29.50;;;;;;;;;;5136627;27;20023;-70
2021/11/11 03:42:15;;;;;;;34.97;23.27;;;;;;;;;;5136623;27;20019;-70
2021/11/11 03:44:42;;;;;;;42.63;27.23;;;;;;;;;;5136683;27;20020;-70
2021/11/11 03:47:08;;;;;;;39.53;24.20;;;;;;;;;;5121914;27;20024;-70
2021/11/11 03:49:35;;;;;;;47.70;30.10;;;;;;;;;;5136514;27;20031;-69
2021/11/11 03:52:01;;;;;;;46.58;30.83;;;;;;;;;;5136499;27;20477;-70
2021/11/11 03:54:27;;;;;;;36.72;23.13;;;;;;;;;;5136304;27;20038;-70
2021/11/11 03:56:58;;;;;;;55.60;31.42;;;;;;;;;;5135140;27;20106;-70
2021/11/11 03:59:25;;;;;;;52.70;32.15;;;;;;;;;;5136234;27;20027;-69
2021/11/11 04:01:52;;;;;;;54.58;34.35;;;;;;;;;;5136656;27;20026;-70
2021/11/11 04:04:18;;;;;;;46.97;28.25;;;;;;;;;;5136104;27;20028;-69
2021/11/11 04:06:44;;;;;;;53.63;30.50;;;;;;;;;;5136531;27;20373;-69
2021/11/11 04:09:10;;;;;;;55.83;31.02;;;;;;;;;;5135777;27;20122;-69
2021/11/11 04:11:36;;;;;;;68.32;41.38;;;;;;;;;;5136374;27;20030;-69
2021/11/11 04:14:04;;;;;;;36.78;22.63;;;;;;;;;;5136288;27;20027;-69
2021/11/11 04:16:30;;;;;;;34.80;22.30;;;;;;;;;;5135904;27;20027;-69
2021/11/11 04:18:57;;;;;;;35.92;21.77;;;;;;;;;;5135933;27;20092;-69
2021/11/11 04:21:23;;;;;;;45.50;28.08;;;;;;;;;;5135924;27;20019;-69
2021/11/11 04:23:51;;;;;;;44.40;28.08;;;;;;;;;;5135535;27;20015;-70
2021/11/11 04:26:29;;;;;;;50.78;29.40;;;;;;;;;;5135763;27;20023;-69
2021/11/11 04:31:48;;;;;;;35.28;23.80;;;;;;;;;;5135749;27;20030;-69
2021/11/11 04:34:12;;;;;;;41.63;25.52;;;;;;;;;;5135055;27;20074;-70
2021/11/11 04:49:45;;;;;;;38.40;24.08;;;;;;;;;;5135155;27;20110;-70
2021/11/11 05:05:42;;;;;;;42.15;26.95;;;;;;;;;;5091914;28;20035;-69
2021/11/11 05:08:08;;;;;;;45.03;26.65;;;;;;;;;;5091812;28;20371;-69
2021/11/11 05:10:35;;;;;;;50.17;27.45;;;;;;;;;;5091985;28;20021;-69
2021/11/11 05:13:01;;;;;;;47.53;27.58;;;;;;;;;;5091570;28;20032;-69
2021/11/11 05:15:27;;;;;;;52.75;32.88;;;;;;;;;;5091795;28;20428;-69
2021/11/11 05:17:54;;;;;;;69.63;38.63;;;;;;;;;;5091645;28;20059;-69
2021/11/11 05:20:20;;;;;;;74.90;43.22;;;;;;;;;;5091531;28;20462;-69
2021/11/11 05:22:47;;;;;;;51.25;32.40;;;;;;;;;;5091722;28;20032;-70
2021/11/11 05:25:14;;;;;;;50.58;28.55;;;;;;;;;;5091295;28;20193;-69
2021/11/11 05:27:42;;;;;;;59.58;33.83;;;;;;;;;;5091370;28;20143;-70
2021/11/11 05:30:09;;;;;;;83.32;47.05;;;;;;;;;;5091393;28;20024;-70
2021/11/11 05:32:35;;;;;;;58.63;35.22;;;;;;;;;;5091499;28;20054;-69
2021/11/11 05:35:02;;;;;;;69.30;39.97;;;;;;;;;;5091499;28;20538;-70
2021/11/11 05:37:28;;;;;;;63.28;37.97;;;;;;;;;;5091962;27;20375;-69
2021/11/11 05:39:55;;;;;;;66.93;37.50;;;;;;;;;;5134524;27;20034;-70
2021/11/11 05:42:21;;;;;;;66.47;32.80;;;;;;;;;;5134525;27;20011;-69
2021/11/11 05:44:47;;;;;;;62.85;36.70;;;;;;;;;;5134349;27;20030;-69
2021/11/11 05:47:14;;;;;;;62.05;34.72;;;;;;;;;;5134062;27;20469;-70
2021/11/11 05:49:40;;;;;;;78.03;44.28;;;;;;;;;;5134182;27;20084;-70
2021/11/11 05:52:06;;;;;;;62.63;34.45;;;;;;;;;;5119920;27;20390;-70
2021/11/11 05:54:32;;;;;;;68.53;36.40;;;;;;;;;;5133719;27;20041;-70
2021/11/11 05:56:59;;;;;;;54.90;32.97;;;;;;;;;;5134265;27;20051;-70
2021/11/11 05:59:25;;;;;;;62.83;36.58;;;;;;;;;;5133675;27;20063;-70
2021/11/11 06:01:52;;;;;;;64.47;37.78;;;;;;;;;;5134146;27;20027;-70
2021/11/11 06:04:18;;;;;;;74.75;43.63;;;;;;;;;;5133832;27;20046;-70
2021/11/11 06:06:44;;;;;;;62.42;35.90;;;;;;;;;;5133773;27;20500;-70
2021/11/11 06:09:10;;;;;;;76.72;43.05;;;;;;;;;;5133793;27;20039;-70
2021/11/11 06:11:36;;;;;;;61.40;37.63;;;;;;;;;;5133709;27;20015;-70
2021/11/11 06:14:02;;;;;;;66.25;37.95;;;;;;;;;;5133430;27;20056;-70
2021/11/11 06:16:28;;;;;;;77.88;40.83;;;;;;;;;;5133585;27;20015;-70
2021/11/11 06:18:55;;;;;;;77.40;42.50;;;;;;;;;;5133574;27;20064;-70
2021/11/11 06:21:22;;;;;;;55.67;32.03;;;;;;;;;;5133571;27;20465;-69
2021/11/11 06:23:52;;;;;;;62.95;36.90;;;231.30;2252.80;;;;;;5133770;27;20023;-70
2021/11/11 06:26:22;;;;;;;73.72;41.58;;;231.20;2252.80;;;;;;5133590;27;20062;-70
2021/11/11 06:28:48;;;;;;;80.72;51.22;;;;;;;;;;5133137;27;20036;-70
2021/11/11 06:31:15;;;;;;;67.78;37.45;;;;;;;;;;5133584;27;20479;-70
2021/11/11 06:33:41;;;;;;;73.25;41.15;;;256.00;2252.80;;;;;;5133333;27;20106;-70
2021/11/11 06:36:07;;;;;;;69.55;40.72;;;256.20;2252.80;;;;;;5133405;27;20094;-70
2021/11/11 06:38:33;;;;;;;65.10;34.67;;;256.10;2252.80;;;;;;5133582;27;20126;-70
2021/11/11 06:40:58;;;;;;;63.75;39.08;;;231.30;2252.80;;;;;;5133555;28;20071;-70
2021/11/11 06:43:24;;;;;;;65.68;40.97;;;231.30;2252.80;;;;;;5133352;28;20038;-70
2021/11/11 06:45:50;;;;;;;69.32;40.85;;;;;;;;;;5133745;28;20019;-70
2021/11/11 06:48:16;;;;;;;67.70;40.60;;;;;;;;;;5133145;28;20031;-69
2021/11/11 06:50:43;;;;;;;73.70;39.35;;;;;;;;;;5133175;28;20015;-70
2021/11/11 06:53:10;;;;;;;73.63;41.65;;;;;;;;;;5133250;28;20048;-69
2021/11/11 06:55:36;;;;;;;72.85;42.78;;;;;;;;;;5133096;28;20030;-70
2021/11/11 06:58:02;;;;;;;72.90;38.95;;;;;;;;;;5133473;27;20023;-70
2021/11/11 07:00:29;;;;;;;64.03;37.35;;;256.50;2252.80;;;;;;5133375;28;20080;-69
2021/11/11 07:02:55;;;;;;;77.20;41.72;;;;;;;;;;5121764;28;20023;-70
2021/11/11 07:05:21;;;;;;;67.75;41.72;;;256.60;2252.80;;;;;;5123092;28;20030;-70
2021/11/11 07:07:46;;;;;;;79.40;44.50;;;256.50;2252.80;;;;;;5132942;27;20023;-70
2021/11/11 07:10:13;;;;;;;84.22;49.70;;;256.60;2252.80;;;;;;5136721;27;20023;-69
2021/11/11 07:12:39;;;;;;;84.70;46.38;;;256.70;2252.80;;;;;;5137056;27;20019;-70
2021/11/11 07:15:06;;;;;;;84.65;46.92;;;;;;;;;;5135242;27;20027;-70
2021/11/11 07:17:34;;;;;;;80.18;48.60;;;;;;;;;;5136989;27;20121;-70
2021/11/11 07:20:00;;;;;;;81.75;45.88;;;;;;;;;;5136795;27;20027;-69
2021/11/11 07:22:27;;;;;;;75.03;43.55;;;;;;;;;;5137056;27;20026;-69
2021/11/11 07:24:53;;;;;;;74.63;43.40;;;;;;;;;;5137112;27;20023;-69
2021/11/11 07:27:19;;;;;;;72.90;43.72;;;;;;;;;;5136835;27;20047;-69
2021/11/11 07:29:45;;;;;;;88.53;50.80;;;256.60;2252.80;;;;;;5136854;27;20481;-69
2021/11/11 07:32:11;;;;;;;80.97;48.00;;;256.20;2252.80;;;;;;5136700;27;20015;-69
2021/11/11 07:34:37;;;;;;;103.93;62.35;;;;;;;;;;5135644;27;20122;-70
2021/11/11 07:37:07;;;;;;;99.20;56.75;;;;;;;;;;5136583;27;20039;-70
2021/11/11 07:39:33;;;;;;;92.15;54.30;;;256.80;2252.80;;;;;;5136890;27;20092;-70
2021/11/11 07:41:59;;;;;;;84.60;49.78;;;256.90;2252.80;;;;;;5136833;27;20393;-69
2021/11/11 07:44:25;;;;;;;87.63;49.95;;;;;;;;;;5136310;27;20025;-70
2021/11/11 07:46:51;;;;;;;91.38;52.70;;;256.80;2252.80;;;;;;5136069;27;20485;-70
2021/11/11 07:49:16;;;;;;;94.20;52.53;;;256.60;2252.80;;;;;;5136049;27;20038;-69
2021/11/11 07:51:43;;;;;;;91.53;50.60;;;256.80;2252.80;;;;;;5136056;27;20087;-69
2021/11/11 07:54:09;;;;;;;86.50;50.67;;;256.70;2252.80;;;;;;5136007;27;20417;-70
2021/11/11 07:56:36;;;;;;;98.90;58.60;;;;;;;;;;5136246;27;20106;-70
2021/11/11 07:59:03;;;;;;;99.97;57.95;;;;;;;;;;5135706;27;20031;-71
2021/11/11 08:01:28;;;;;;;78.30;46.25;;;256.60;2252.80;;;;;;5136070;27;20024;-70
2021/11/11 08:03:54;;;;;;;84.53;47.85;;;256.50;2252.80;;;;;;5135968;27;20358;-70
2021/11/11 08:06:20;;;;;;;81.22;46.45;;;256.90;2252.80;;;;;;5135495;27;20036;-69
2021/11/11 08:08:46;;;;;;;88.97;53.92;;;256.70;2252.80;;;;;;5135794;27;20027;-70
2021/11/11 08:11:12;;;;;;;100.97;62.47;;;256.50;2252.80;;;;;;5135639;27;20095;-70
2021/11/11 08:13:38;;;;;;;98.10;59.90;;;256.50;2252.80;;;;;;5135744;27;20051;-70
2021/11/11 08:16:04;;;;;;;98.45;58.80;;;256.20;2252.80;;;;;;5135524;27;20023;-70
2021/11/11 08:18:30;;;;;;;190.15;130.73;;;256.30;2252.80;;;;;;5135296;27;20019;-70
2021/11/11 08:20:56;;;;;;;92.47;55.47;;;256.10;2252.80;;;;;;5134253;27;20110;-69
2021/11/11 08:23:22;;;;;;;90.72;55.35;;;256.30;2252.80;;;;;;5135224;27;20108;-70
2021/11/11 08:25:49;;;;;;;103.43;56.15;;;256.20;2252.80;;;;;;5122420;27;20024;-70
2021/11/11 08:28:16;;;;;;;92.80;53.78;;;256.20;2252.80;;;;;;5125734;27;20046;-70
2021/11/11 08:30:42;;;;;;;90.40;54.22;;;256.20;2252.80;;;;;;5135436;27;20057;-70
2021/11/11 08:33:08;;;;;;;104.78;56.70;;;256.30;2252.80;;;;;;5135366;27;20023;-69
2021/11/11 08:35:35;;;;;;;115.68;63.28;;;;;;;;;;5135101;27;20089;-69
2021/11/11 08:38:01;;;;;;;107.90;59.83;;;281.80;2278.40;;;;;;5135038;27;20114;-69
2021/11/11 08:40:27;;;;;;;117.50;60.28;;;281.80;2278.40;;;;;;5135004;27;20393;-70
2021/11/11 08:42:56;;;;;;;114.25;59.08;;;281.90;2278.40;;;;;;5135072;27;20031;-69
2021/11/11 08:45:24;;;;;;;112.50;66.53;;;282.00;2278.40;;;;;;5134982;27;20030;-70
2021/11/11 08:47:50;;;;;;;121.95;71.47;;;;;;;;;;5135048;27;20053;-69
2021/11/11 08:50:16;;;;;;;115.70;69.38;;;;;;;;;;5135547;27;20063;-69
2021/11/11 08:52:48;;;;;;;103.32;57.33;;;;;;;;;;5134876;27;20042;-70
2021/11/11 08:55:16;;;;;;;175.27;98.10;;;;;;;;;;5134996;27;20457;-70
2021/11/11 08:57:42;;;;;;;119.72;66.60;;;;;;;;;;5134801;27;20120;-69
2021/11/11 09:00:14;;;;;;;118.22;68.82;;;;;;;;;;5134677;27;20070;-70
2021/11/11 09:02:41;;;;;;;103.60;59.10;;;;;;;;;;5134696;27;20034;-69
2021/11/11 09:05:08;;;;;;;111.80;64.03;;;;;;;;;;5134517;27;20469;-70
2021/11/11 09:07:38;;;;;;;115.82;65.50;;;;;;;;;;5133572;27;20473;-69
2021/11/11 09:10:05;;;;;;;114.15;63.35;;;;;;;;;;5121629;27;20110;-69
2021/11/11 09:12:31;;;;;;;110.13;63.50;;;;;;;;;;5134522;27;20060;-70
2021/11/11 09:14:57;;;;;;;116.20;65.93;;;;;;;;;;5134236;27;20434;-70
2021/11/11 09:17:23;;;;;;;125.43;74.20;;;;;;;;;;5134530;27;20026;-69
2021/11/11 09:19:49;;;;;;;116.95;70.28;;;;;;;;;;5134265;27;20023;-70
2021/11/11 09:22:15;;;;;;;127.05;71.25;;;;;;;;;;5134229;27;20662;-71
2021/11/11 09:24:41;;;;;;;122.60;70.07;;;282.10;2278.40;;;;;;5134192;27;20058;-69
2021/11/11 09:27:06;;;;;;;108.90;60.33;;;282.00;2278.40;;;;;;5134239;27;20067;-70
2021/11/11 09:29:32;;;;;;;166.35;91.68;;;282.10;2278.40;;;;;;5133944;27;20138;-69
2021/11/11 09:31:58;;;;;;;109.00;60.20;;;282.00;2278.40;;;;;;5133783;27;20102;-70
2021/11/11 09:34:24;;;;;;;139.15;83.97;;;;;;;;;;5134041;27;20023;-70
2021/11/11 09:36:50;;;;;;;130.15;75.28;;;282.20;2278.40;;;;;;5133929;27;20023;-70
2021/11/11 09:39:15;;;;;;;104.72;60.28;;;282.30;2278.40;;;;;;5133798;27;20026;-70
2021/11/11 09:41:41;;;;;;;121.05;68.47;;;282.10;2278.40;;;;;;5134064;27;20015;-70
2021/11/11 09:44:08;;;;;;;146.13;88.93;;;;;;;;;;5134189;27;20148;-70
2021/11/11 09:46:34;;;;;;;114.05;66.50;;;282.50;2278.40;;;;;;5133965;27;20098;-70
2021/11/11 09:49:00;;;;;;;109.57;64.60;;;282.40;2278.40;;;;;;5133678;27;20111;-69
2021/11/11 09:51:26;;;;;;;159.73;99.05;;;282.00;2278.40;;;;;;5132826;27;20023;-69
2021/11/11 09:59:23;;;;;;;117.60;70.22;;;281.90;2278.40;;;;;;5133462;27;20126;-69
2021/11/11 10:01:50;;;;;;;117.82;68.55;;;282.00;2278.40;;;;;;5133399;27;20022;-70
2021/11/11 10:04:16;;;;;;;111.53;61.88;;;282.20;2278.40;;;;;;5133499;27;20035;-70
2021/11/11 10:06:42;;;;;;;108.93;60.70;;;;;;;;;;5133634;27;20027;-70
2021/11/11 10:09:16;;;;;;;114.85;66.05;;;;;;;;;;5133442;27;20039;-69
2021/11/11 10:11:50;;;;;;;113.78;65.85;;;;;;;;;;5106945;27;20023;-69
2021/11/11 10:14:18;;;;;;;113.85;65.47;;;;;;;;;;5133292;27;20355;-70
2021/11/11 10:16:55;;;;;;;124.25;67.72;;;;;;;;;;5131528;27;20015;-69
2021/11/11 10:19:21;;;;;;;171.98;103.22;;;;;;;;;;5133320;27;20022;-69
2021/11/11 10:21:56;;;;;;;186.73;111.00;;;;;;;;;;5133158;27;20434;-69
2021/11/11 10:24:28;;;;;;;192.43;115.30;;;;;;;;;;5133327;27;20106;-70
2021/11/11 10:27:24;;;;;;;191.52;118.47;;;;;;;;;;5133190;27;20067;-70
2021/11/11 10:30:03;;;;;;;162.77;99.78;;;;;;;;;;5131491;27;20054;-69
2021/11/11 10:32:30;;;;;;;153.07;100.22;;;;;;;;;;5133180;27;20041;-69
2021/11/11 10:35:01;;;;;;;146.65;88.93;;;;;;;;;;5133153;27;20030;-70
2021/11/11 10:37:31;;;;;;;141.30;65.97;;;;;;;;;;5132925;27;20019;-70
2021/11/11 10:40:03;;;;;;;170.35;99.75;;;;;;;;;;5133091;28;20780;-70
2021/11/11 10:42:31;;;;;;;167.45;95.57;;;;;;;;;;5132731;27;20383;-69
2021/11/11 10:44:58;;;;;;;154.30;87.03;;;;;;;;;;5132249;28;20102;-69
2021/11/11 10:47:25;;;;;;;172.32;99.95;;;;;;;;;;5132908;28;20385;-70
2021/11/11 10:49:52;;;;;;;174.00;102.63;;;;;;;;;;5132968;28;20442;-70
2021/11/11 10:52:30;;;;;;;182.05;107.05;;;;;;;;;;5132725;28;20465;-70
2021/11/11 10:55:02;;;;;;;194.05;110.13;;;;;;;;;;5133154;28;20111;-69
2021/11/11 10:57:36;;;;;;;193.00;115.95;;;;;;;;;;5133526;28;20038;-69
2021/11/11 11:00:08;;;;;;;193.25;112.13;;;;;;;;;;5133392;28;20023;-69
2021/11/11 11:02:49;;;;;;;184.82;110.20;;;;;;;;;;5116815;28;20486;-69
2021/11/11 11:05:15;;;;;;;184.45;111.13;;;;;;;;;;5130687;28;20024;-69
2021/11/11 11:07:41;;;;;;;175.65;107.20;;;;;;;;;;5132717;28;20023;-69
2021/11/11 11:10:10;;;;;;;182.10;103.75;;;;;;;;;;5133010;28;20042;-70
2021/11/11 11:12:36;;;;;;;177.15;102.50;;;;;;;;;;5132762;28;20022;-70
2021/11/11 11:15:02;;;;;;;188.55;113.40;;;;;;;;;;5132734;28;20023;-69
2021/11/11 11:17:28;;;;;;;177.63;107.35;;;;;;;;;;5132915;28;20027;-69
2021/11/11 11:20:13;;;;;;;177.98;108.43;;;;;;;;;;5132628;28;20107;-69
2021/11/11 11:22:39;;;;;;;171.65;104.28;;;333.00;2252.80;;;;;;5132988;28;20019;-69
2021/11/11 11:25:05;;;;;;;158.45;94.43;;;333.00;2227.20;;;;;;5132800;28;20072;-69
2021/11/11 11:27:33;;;;;;;145.38;88.22;;;;;;;;;;5132907;28;20103;-69
2021/11/11 11:30:07;;;;;;;148.93;88.65;;;;;;;;;;5132849;28;20378;-70
2021/11/11 11:32:35;;;;;;;138.90;83.35;;;;;;;;;;5132930;28;20015;-70
2021/11/11 11:35:03;;;;;;;132.02;84.40;;;;;;;;;;5132865;28;20567;-69
2021/11/11 11:37:31;;;;;;;124.65;80.82;;;;;;;;;;5132756;28;20023;-69
2021/11/11 11:39:57;;;;;;;114.47;75.97;;;;;;;;;;5132858;28;20098;-69
2021/11/11 11:42:25;;;;;;;100.07;62.58;;;;;;;;;;5132626;28;20015;-69
2021/11/11 11:44:51;;;;;;;104.35;63.75;;;;;;;;;;5132604;28;20023;-69
2021/11/11 11:50:04;;;;;;;78.18;51.83;;;;;;;;;;5132723;28;20049;-70
2021/11/11 11:52:32;;;;;;;78.22;45.55;;;;;;;;;;5132501;28;20023;-70
2021/11/11 11:57:41;;;;;;;73.60;47.75;;;;;;;;;;5136508;27;20034;-69
2021/11/11 12:14:31;;;;;;;57.25;37.03;;;;;;;;;;5092796;28;20035;-71
2021/11/11 12:17:57;;;;;;;61.42;39.45;;;384.60;1868.80;;;;;;5091844;28;20032;-71
2021/11/11 12:40:00;;;;;;;49.35;39.55;;;;;;;;;;5031927;28;20048;-72
2021/11/11 12:42:32;;;;;;;46.35;33.92;;;;;;;;;;5031858;28;20121;-71
2021/11/11 12:45:07;;;;;;;39.78;32.47;;;717.70;742.40;;;;;;5031860;28;20064;-71
2021/11/11 12:47:41;;;;;;;60.10;43.08;;;;;;;;;;5049354;28;20438;-72
2021/11/11 12:50:25;;;;;;;40.20;32.65;;;;;;;;;;5051501;28;20033;-71
2021/11/11 12:53:10;;;;;;;43.05;34.58;;;;;;;;;;5051620;28;20025;-71
2021/11/11 12:55:36;;;;;;;36.15;30.27;;;;;;;;;;5051299;28;20363;-71
2021/11/11 12:58:04;;;;;;;40.38;31.60;;;;;;;;;;5051730;28;20396;-71
2021/11/11 13:00:38;;;;;;;49.95;37.58;;;;;;;;;;5063573;28;20050;-71
2021/11/11 13:03:06;;;;;;;42.03;35.83;;;;;;;;;;5135186;27;20387;-72
2021/11/11 13:05:52;;;;;;;41.95;36.20;;;819.40;640.00;;;;;;5134523;27;20026;-72
2021/11/11 13:08:22;;;;;;;47.28;37.40;;;;;;;;;;5121114;27;20019;-71
2021/11/11 13:10:53;;;;;;;42.72;35.65;;;691.90;768.00;;;;;;5134536;27;20102;-71
2021/11/11 13:13:26;;;;;;;35.53;27.90;;;;;;;;;;5106445;27;20018;-71
2021/11/11 13:16:13;;;;;;;37.13;31.08;;;768.00;691.20;;;;;;5134465;27;20023;-72
2021/11/11 13:18:57;;;;;;;31.08;25.75;;;768.10;716.80;;;;;;5133911;27;20057;-71
2021/11/11 13:21:47;;;;;;;41.40;31.02;;;;;;;;;;5134258;27;20026;-71
2021/11/11 15:47:53;;;;;;;132.10;99.53;;;;;;;;;;5136838;27;20076;-71
2021/11/11 16:24:32;;;;;;;121.55;89.93;;;;;;;;;;5031823;28;20036;-71
2021/11/11 16:27:00;;;;;;;139.43;93.40;;;;;;;;;;5036743;28;20051;-72
2021/11/11 16:29:26;;;;;;;142.63;100.53;;;;;;;;;;5051518;28;20052;-71
2021/11/11 16:31:53;;;;;;;151.30;110.05;;;;;;;;;;5051162;28;20033;-71
2021/11/11 16:34:20;;;;;;;152.55;105.60;;;;;;;;;;5051459;28;20069;-71
2021/11/11 16:36:46;;;;;;;168.68;119.57;;;;;;;;;;5051330;28;20036;-70
2021/11/11 16:39:14;;;;;;;175.82;125.32;;;;;;;;;;5051729;28;20466;-70
2021/11/11 16:41:41;;;;;;;160.40;112.95;;;;;;;;;;5050623;28;20029;-70
2021/11/11 16:44:09;;;;;;;146.10;105.57;;;;;;;;;;5051092;28;20513;-71
2021/11/11 16:46:36;;;;;;;135.27;100.72;;;;;;;;;;5048155;28;20028;-70
2021/11/11 16:49:03;;;;;;;128.48;94.10;;;;;;;;;;5087752;28;20517;-71
2021/11/11 16:51:29;;;;;;;128.73;90.80;;;;;;;;;;5093975;28;20024;-70
2021/11/11 16:53:55;;;;;;;132.23;94.40;;;;;;;;;;5093826;28;20056;-71
2021/11/11 16:56:21;;;;;;;174.15;118.28;;;;;;;;;;5094000;28;20359;-72
2021/11/11 16:58:47;;;;;;;188.13;131.43;;;;;;;;;;5075422;28;20050;-70
2021/11/11 17:01:13;;;;;;;204.40;142.93;;;;;;;;;;5093771;28;20016;-70
2021/11/11 17:03:40;;;;;;;180.75;127.88;;;;;;;;;;5093842;28;20069;-70
2021/11/11 17:06:06;;;;;;;163.93;109.95;;;;;;;;;;5093563;28;20028;-71
2021/11/11 17:08:32;;;;;;;141.98;96.38;;;;;;;;;;5093860;28;20432;-70
2021/11/11 17:10:58;;;;;;;130.10;86.25;;;231.20;2252.80;;;;;;5093527;28;20422;-70
2021/11/11 17:13:24;;;;;;;143.20;92.10;;;231.20;2252.80;;;;;;5075371;28;20371;-70
2021/11/11 17:15:50;;;;;;;141.63;89.43;;;231.10;2252.80;;;;;;5093684;28;20078;-70
2021/11/11 17:18:17;;;;;;;144.00;94.30;;;231.10;2252.80;;;;;;5093240;28;20016;-70
2021/11/11 17:20:44;;;;;;;152.52;87.60;;;231.10;2252.80;;;;;;5093531;28;20024;-69
2021/11/11 17:23:17;;;;;;;131.85;80.38;;;231.10;2252.80;;;;;;5093420;28;20119;-70
2021/11/11 17:30:50;;;;;;;101.97;55.30;;;;;;;;;;5113929;28;20031;-70
2021/11/11 17:33:17;;;;;;;93.28;50.95;;;;;;;;;;5113688;28;20374;-70
2021/11/11 17:35:43;;;;;;;97.72;56.75;;;;;;;;;;5113228;28;20458;-70
2021/11/11 17:38:11;;;;;;;108.75;55.45;;;;;;;;;;5113605;28;20510;-70
2021/11/11 17:40:38;;;;;;;97.57;55.92;;;;;;;;;;5113560;28;20106;-70
2021/11/11 17:43:07;;;;;;;138.80;91.72;;;256.00;2252.80;;;;;;5113170;28;20501;-70